Aventura, Florida
Current Conditions -  °F | °C
As of 12:53 PM on Friday 24 Oct 2014 (Local Time) from KHWO Reporting Station
Light Rain Light Rain  
Wind Chill: 75°   Ceiling: 3400
Heat Index: 75°   Visibility: 10mi
Dew Point: 70°   Wind: 17mph
Humidity: 84%   Direction: 40°NE
Pressure: 29.88"   Gusts: 24mph
Location:  25.9536°N, 80.1568°W
Report Text: KHWO 241653Z 04015G21KT 10SM -RA SCT023 BKN034 OVC042 24/21 A2988 RMK AO2 PK WND 06027/1559 RAB05E14B41 SLP119 P0001 T02390211
Loading
Personal Weather Stations






























Interactive Weather Map
Tropical Storm Tracking
New forecast layout! Learn more

10-Day Weather Forecast

Advertisements
Track Severe Weather on mobile